Centerbrook, Connecticut
Current Conditions -  °F | °C
As of 5:15 PM on Friday 31 Oct 2014 (Local Time) from KSNC Reporting Station
Overcast Overcast  
Wind Chill: 11°   Ceiling: 3300
Heat Index: 11°   Visibility: 10mi
Dew Point:   Wind: 7mph
Humidity: 62%   Direction: 60°ENE
Pressure: 29.92"   Gusts: NA
Location:  41.35°N, 72.42°W
Report Text: KSNC 312115Z AUTO 06006KT 10SM OVC033 11/04 A2992 RMK AO2
Loading
Personal Weather Stations






























Interactive Weather Map
Tropical Storm Tracking
New forecast layout! Learn more

10-Day Weather Forecast

Advertisements
Track Severe Weather on mobile